createdAt,value
2023-04-29T00:03:29.165Z,96618.06
2023-04-29T00:08:24.265Z,96626.38
2023-04-29T00:13:18.051Z,96627.19
2023-04-29T00:18:11.685Z,96621.09
2023-04-29T00:23:04.967Z,96623.31
2023-04-29T00:28:02.210Z,96631.34
2023-04-29T00:32:56.015Z,96628.72
2023-04-29T00:37:51.396Z,96620.28
2023-04-29T00:42:45.085Z,96612.22
2023-04-29T00:47:40.141Z,96611.66
2023-04-29T00:52:33.976Z,96621.25
2023-04-29T00:57:29.115Z,96623.63
2023-04-29T01:17:57.652Z,96618.06
2023-04-29T01:22:50.990Z,96626.63
2023-04-29T01:27:57.362Z,96611.41
2023-04-29T01:33:01.282Z,96613.91
2023-04-29T02:18:46.876Z,96618.19
2023-04-29T02:23:40.700Z,96610.56
2023-04-29T02:28:34.790Z,96618.75
2023-04-29T02:33:28.163Z,96617.50
2023-04-29T02:38:22.806Z,96605.03
2023-04-29T02:43:16.082Z,96598.25
2023-04-29T02:48:09.507Z,96596.44
2023-04-29T02:53:02.890Z,96588.69
2023-04-29T03:18:38.696Z,96597.84
2023-04-29T03:23:32.004Z,96595.19
2023-04-29T03:28:25.318Z,96594.09
2023-04-29T03:33:18.683Z,96598.63
2023-04-29T03:38:13.435Z,96593.25
2023-04-29T03:43:08.034Z,96597.56
2023-04-29T03:48:02.784Z,96598.94
2023-04-29T03:52:56.170Z,96590.75
2023-04-29T03:57:50.770Z,96587.84
2023-04-29T04:02:44.622Z,96582.03
2023-04-29T04:07:38.453Z,96581.88
2023-04-29T04:12:31.769Z,96572.34
2023-04-29T04:17:26.471Z,96583.69
2023-04-29T04:22:20.289Z,96591.72
2023-04-29T04:27:13.628Z,96594.44
2023-04-29T04:32:07.562Z,96594.03
2023-04-29T04:37:02.619Z,96601.63
2023-04-29T04:41:56.047Z,96607.16
2023-04-29T04:46:50.614Z,96614.38
2023-04-29T04:51:47.150Z,96626.41
2023-04-29T04:56:41.836Z,96634.28
2023-04-29T05:01:35.279Z,96626.44
2023-04-29T05:06:28.705Z,96631.56
2023-04-29T05:11:23.364Z,96633.50
2023-04-29T05:16:18.702Z,96638.00
2023-04-29T05:21:12.041Z,96647.53
2023-04-29T05:26:05.475Z,96653.22
2023-04-29T05:30:58.941Z,96662.28
2023-04-29T05:35:53.709Z,96670.03
2023-04-29T05:40:51.265Z,96669.31
2023-04-29T05:45:47.925Z,96673.34
2023-04-29T05:50:41.621Z,96672.78
2023-04-29T05:55:36.311Z,96676.66
2023-04-29T06:00:29.838Z,96682.66
2023-04-29T06:05:23.479Z,96682.91
2023-04-29T06:10:17.129Z,96688.16
2023-04-29T06:15:12.641Z,96690.53
2023-04-29T06:20:07.215Z,96694.28
2023-04-29T06:25:00.539Z,96701.16
2023-04-29T06:29:54.393Z,96700.91
2023-04-29T06:34:50.116Z,96702.72
2023-04-29T06:39:43.460Z,96701.75
2023-04-29T06:44:37.089Z,96699.84
2023-04-29T06:49:30.407Z,96701.50
2023-04-29T06:54:25.102Z,96699.94
2023-04-29T06:59:18.446Z,96704.34
2023-04-29T07:04:12.143Z,96690.03
2023-04-29T07:09:05.656Z,96692.59
2023-04-29T07:14:00.337Z,96682.66
2023-04-29T07:18:54.056Z,96686.91
2023-04-29T07:23:48.095Z,96689.56
2023-04-29T07:28:42.297Z,96682.75
2023-04-29T07:33:37.673Z,96686.16
2023-04-29T07:38:31.329Z,96691.72
2023-04-29T07:43:24.772Z,96696.94
2023-04-29T07:48:18.171Z,96713.28
2023-04-29T07:53:12.863Z,96712.16
2023-04-29T07:58:06.281Z,96720.38
2023-04-29T08:03:01.695Z,96718.13
2023-04-29T08:07:55.261Z,96727.91
2023-04-29T08:12:50.332Z,96736.66
2023-04-29T08:17:43.790Z,96747.66
2023-04-29T08:22:37.177Z,96750.22
2023-04-29T08:27:30.481Z,96738.16
2023-04-29T08:32:25.587Z,96750.84
2023-04-29T08:37:18.913Z,96756.44
2023-04-29T08:42:12.626Z,96747.28
2023-04-29T08:47:07.155Z,96742.75
2023-04-29T08:52:02.552Z,96751.63
2023-04-29T08:56:59.350Z,96757.72
2023-04-29T09:01:55.372Z,96771.50
2023-04-29T09:06:49.897Z,96770.16
2023-04-29T09:11:44.677Z,96759.72
2023-04-29T09:16:38.956Z,96752.41
2023-04-29T09:21:33.320Z,96758.66
2023-04-29T09:26:27.534Z,96780.88
2023-04-29T09:31:30.377Z,96804.78
2023-04-29T09:36:46.126Z,96807.03
2023-04-29T09:41:42.102Z,96803.34
2023-04-29T09:46:38.378Z,96804.69
2023-04-29T09:51:33.238Z,96809.78
2023-04-29T09:56:29.182Z,96811.44
2023-04-29T10:01:24.528Z,96768.94
2023-04-29T10:06:20.704Z,96789.88
2023-04-29T10:11:15.540Z,96813.38
2023-04-29T10:16:22.048Z,96836.13
2023-04-29T10:21:16.160Z,96814.59
2023-04-29T10:26:16.646Z,96820.50
2023-04-29T10:31:11.852Z,96813.97
2023-04-29T10:36:07.634Z,96812.13
2023-04-29T10:41:05.200Z,96792.84
2023-04-29T10:46:21.682Z,96791.66
2023-04-29T10:51:31.555Z,96795.88
2023-04-29T10:56:41.109Z,96801.50
2023-04-29T11:01:51.922Z,96794.03
2023-04-29T11:06:53.736Z,96798.16
2023-04-29T11:11:59.158Z,96801.28
2023-04-29T11:17:00.085Z,96777.19
2023-04-29T11:22:25.483Z,96785.09
2023-04-29T11:27:22.865Z,96774.53
2023-04-29T11:32:23.135Z,96770.00
2023-04-29T11:37:25.623Z,96758.19
2023-04-29T11:42:22.604Z,96750.03
2023-04-29T11:52:22.516Z,96764.50
2023-04-29T11:57:16.075Z,96752.25
2023-04-29T12:02:13.981Z,96755.72
2023-04-29T12:07:11.620Z,96754.03
2023-04-29T12:12:08.190Z,96753.31
2023-04-29T12:17:01.882Z,96760.22
2023-04-29T12:27:08.990Z,96741.78
2023-04-29T12:32:03.015Z,96758.53
2023-04-29T12:42:03.464Z,96758.84
2023-04-29T12:47:10.796Z,96758.91
2023-04-29T12:52:04.301Z,96771.09
2023-04-29T12:56:57.637Z,96765.03
2023-04-29T13:01:51.039Z,96788.78
2023-04-29T13:11:54.081Z,96817.28
2023-04-29T13:16:47.450Z,96768.50
2023-04-29T13:21:40.870Z,96763.09
2023-04-29T13:26:34.146Z,96745.59
2023-04-29T13:31:28.961Z,96694.31
2023-04-29T13:36:22.392Z,96673.56
2023-04-29T13:41:17.041Z,96658.13
2023-04-29T13:46:11.470Z,96644.25
2023-04-29T14:05:56.255Z,96645.56
2023-04-29T14:10:51.094Z,96633.00
2023-04-29T14:15:44.457Z,96633.81
2023-04-29T14:20:37.800Z,96630.06
2023-04-29T14:25:33.080Z,96641.84
2023-04-29T14:30:28.531Z,96642.97
2023-04-29T14:35:21.989Z,96650.41
2023-04-29T14:40:15.356Z,96709.50
2023-04-29T14:45:10.034Z,96685.78
2023-04-29T14:50:05.305Z,96660.22
2023-04-29T14:54:58.550Z,96657.69
2023-04-29T14:59:51.888Z,96644.41
2023-04-29T15:04:46.252Z,96682.00
2023-04-29T15:09:41.364Z,96726.72
2023-04-29T15:14:34.876Z,96702.41
2023-04-29T15:19:28.223Z,96728.69
2023-04-29T15:24:21.567Z,96752.50
2023-04-29T15:29:16.318Z,96759.63
2023-04-29T15:34:09.676Z,96759.44
2023-04-29T15:39:03.080Z,96729.31
2023-04-29T15:43:58.716Z,96694.06
2023-04-29T15:48:53.380Z,96688.00
2023-04-29T15:53:47.949Z,96689.16
2023-04-29T15:58:41.492Z,96688.03
2023-04-29T16:03:34.943Z,96683.56
2023-04-29T16:08:29.815Z,96676.44
2023-04-29T16:13:23.067Z,96677.09
2023-04-29T16:18:17.569Z,96677.94
2023-04-29T16:23:10.897Z,96689.88
2023-04-29T16:28:05.662Z,96708.09
2023-04-29T16:32:58.951Z,96746.16
2023-04-29T16:37:53.576Z,96727.78
2023-04-29T16:42:47.124Z,96739.38
2023-04-29T16:47:42.143Z,96767.03
2023-04-29T16:52:35.518Z,96757.75
2023-04-29T16:57:29.038Z,96852.19
2023-04-29T17:02:22.958Z,96838.28
2023-04-29T17:07:19.538Z,96825.84
2023-04-29T17:12:12.836Z,96852.00
2023-04-29T17:17:06.145Z,96846.81
2023-04-29T17:21:59.573Z,96832.13
2023-04-29T17:26:54.397Z,96806.72
2023-04-29T17:31:54.422Z,96784.78
2023-04-29T17:36:48.188Z,96828.44
2023-04-29T17:41:41.950Z,96870.28
2023-04-29T17:46:36.938Z,96888.66
2023-04-29T17:51:33.029Z,96905.34
2023-04-29T17:56:29.911Z,96910.31
2023-04-29T18:01:23.327Z,96922.94
2023-04-29T18:06:18.289Z,96930.06
2023-04-29T18:11:15.080Z,96941.16
2023-04-29T18:16:09.473Z,96942.53
2023-04-29T18:21:03.404Z,96957.28
2023-04-29T18:31:05.244Z,96958.94
2023-04-29T18:51:24.994Z,97007.00
2023-04-29T19:21:55.279Z,97069.81
2023-04-29T19:26:51.258Z,97057.84
2023-04-29T19:31:46.145Z,97072.72
2023-04-29T19:36:39.567Z,97075.09
2023-04-29T19:41:35.096Z,97073.25
2023-04-29T19:46:28.754Z,97067.72
2023-04-29T19:51:22.285Z,97091.19
2023-04-29T19:56:16.032Z,97081.31
2023-04-29T20:42:07.031Z,97102.13
2023-04-29T20:47:00.390Z,97121.06
2023-04-29T20:51:53.708Z,97120.72
2023-04-29T20:56:47.037Z,97112.16
2023-04-29T21:01:42.072Z,97126.13
2023-04-29T21:06:35.762Z,97115.31
2023-04-29T21:11:29.225Z,97112.03
2023-04-29T21:16:25.171Z,97121.25
2023-04-29T21:41:48.335Z,97120.69
2023-04-29T21:46:41.959Z,97107.69
2023-04-29T21:51:36.289Z,97082.59
2023-04-29T21:56:29.611Z,97106.72
2023-04-29T22:01:39.645Z,97102.13
2023-04-29T22:06:33.443Z,97099.81
2023-04-29T22:11:26.870Z,97099.13
2023-04-29T22:16:20.216Z,97113.09
2023-04-29T22:21:15.035Z,97098.38
2023-04-29T22:26:08.399Z,97107.03
2023-04-29T22:31:01.743Z,97081.53
2023-04-29T22:35:55.057Z,97089.91
2023-04-29T22:40:52.847Z,97086.53
2023-04-29T22:45:53.308Z,97089.75
2023-04-29T22:50:53.008Z,97096.25
2023-04-29T22:55:52.732Z,97085.09
2023-04-29T23:00:46.434Z,97091.13
2023-04-29T23:05:39.921Z,97074.88
2023-04-29T23:10:34.432Z,97085.09
2023-04-29T23:15:30.473Z,97084.59
2023-04-29T23:40:52.795Z,97096.50
2023-04-29T23:45:47.387Z,97109.44
2023-04-29T23:50:40.933Z,97093.50
2023-04-29T23:55:34.648Z,97091.19
